sensor_id;sensor_type;location;lat;lon;timestamp;pressure;altitude;pressure_sealevel;temperature;humidity
70323;BME280;57735;56.264;43.898;2023-10-09T00:01:09;97596.25;;;3.18;87.34
70323;BME280;57735;56.264;43.898;2023-10-09T00:03:50;97595.03;;;3.21;87.45
70323;BME280;57735;56.264;43.898;2023-10-09T00:06:23;97601.13;;;3.21;87.22
70323;BME280;57735;56.264;43.898;2023-10-09T00:09:05;97600.13;;;3.22;87.05
70323;BME280;57735;56.264;43.898;2023-10-09T00:11:54;97594.69;;;3.24;86.98
70323;BME280;57735;56.264;43.898;2023-10-09T00:14:30;97596.16;;;3.26;87.04
70323;BME280;57735;56.264;43.898;2023-10-09T00:17:04;97606.53;;;3.28;87.08
70323;BME280;57735;56.264;43.898;2023-10-09T00:19:41;97604.88;;;3.27;86.42
70323;BME280;57735;56.264;43.898;2023-10-09T00:22:14;97605.56;;;3.21;85.83
70323;BME280;57735;56.264;43.898;2023-10-09T00:24:57;97610.19;;;3.19;86.02
70323;BME280;57735;56.264;43.898;2023-10-09T00:27:42;97623.56;;;3.17;86.08
70323;BME280;57735;56.264;43.898;2023-10-09T00:30:16;97618.09;;;3.19;86.20
70323;BME280;57735;56.264;43.898;2023-10-09T00:32:48;97623.34;;;3.19;86.14
70323;BME280;57735;56.264;43.898;2023-10-09T00:35:29;97624.38;;;3.18;86.05
70323;BME280;57735;56.264;43.898;2023-10-09T00:38:15;97624.88;;;3.13;86.05
70323;BME280;57735;56.264;43.898;2023-10-09T00:40:49;97624.41;;;3.09;85.90
70323;BME280;57735;56.264;43.898;2023-10-09T00:43:43;97620.78;;;3.10;85.85
70323;BME280;57735;56.264;43.898;2023-10-09T00:46:14;97617.69;;;3.07;85.35
70323;BME280;57735;56.264;43.898;2023-10-09T00:48:56;97623.66;;;3.01;85.49
70323;BME280;57735;56.264;43.898;2023-10-09T00:51:27;97629.25;;;2.98;85.74
70323;BME280;57735;56.264;43.898;2023-10-09T00:54:05;97624.16;;;2.96;85.69
70323;BME280;57735;56.264;43.898;2023-10-09T00:56:43;97627.28;;;3.00;86.15
70323;BME280;57735;56.264;43.898;2023-10-09T00:59:22;97625.47;;;3.00;86.28
70323;BME280;57735;56.264;43.898;2023-10-09T01:01:55;97626.09;;;3.02;86.05
70323;BME280;57735;56.264;43.898;2023-10-09T01:04:34;97626.28;;;3.01;86.12
70323;BME280;57735;56.264;43.898;2023-10-09T01:07:15;97631.19;;;3.04;86.32
70323;BME280;57735;56.264;43.898;2023-10-09T01:09:49;97641.19;;;3.08;86.40
70323;BME280;57735;56.264;43.898;2023-10-09T01:12:22;97646.94;;;3.12;86.10
70323;BME280;57735;56.264;43.898;2023-10-09T01:14:53;97638.56;;;3.08;85.83
70323;BME280;57735;56.264;43.898;2023-10-09T01:17:26;97639.72;;;3.06;85.67
70323;BME280;57735;56.264;43.898;2023-10-09T01:20:06;97639.72;;;3.06;85.63
70323;BME280;57735;56.264;43.898;2023-10-09T01:22:47;97644.81;;;3.07;85.88
70323;BME280;57735;56.264;43.898;2023-10-09T01:25:21;97652.88;;;3.06;85.79
70323;BME280;57735;56.264;43.898;2023-10-09T01:27:52;97649.09;;;3.08;85.92
70323;BME280;57735;56.264;43.898;2023-10-09T01:30:25;97664.69;;;3.10;85.84
70323;BME280;57735;56.264;43.898;2023-10-09T01:32:56;97645.47;;;3.09;85.55
70323;BME280;57735;56.264;43.898;2023-10-09T01:35:29;97654.34;;;3.08;85.57
70323;BME280;57735;56.264;43.898;2023-10-09T01:38:03;97661.25;;;3.09;85.80
70323;BME280;57735;56.264;43.898;2023-10-09T01:40:41;97661.25;;;3.09;85.69
70323;BME280;57735;56.264;43.898;2023-10-09T01:43:16;97657.97;;;3.07;85.53
70323;BME280;57735;56.264;43.898;2023-10-09T01:45:49;97663.56;;;3.04;85.50
70323;BME280;57735;56.264;43.898;2023-10-09T01:48:22;97656.31;;;3.06;85.54
70323;BME280;57735;56.264;43.898;2023-10-09T01:50:55;97666.34;;;3.11;85.74
70323;BME280;57735;56.264;43.898;2023-10-09T01:53:26;97664.69;;;3.10;85.39
70323;BME280;57735;56.264;43.898;2023-10-09T01:56:11;97663.88;;;3.09;85.37
70323;BME280;57735;56.264;43.898;2023-10-09T01:58:48;97673.75;;;3.07;85.49
70323;BME280;57735;56.264;43.898;2023-10-09T02:01:20;97681.00;;;3.05;85.61
70323;BME280;57735;56.264;43.898;2023-10-09T02:03:54;97682.16;;;3.03;85.68
70323;BME280;57735;56.264;43.898;2023-10-09T02:06:29;97676.06;;;3.02;85.63
70323;BME280;57735;56.264;43.898;2023-10-09T02:09:02;97679.34;;;3.04;85.65
70323;BME280;57735;56.264;43.898;2023-10-09T02:11:36;97681.00;;;3.05;85.79
70323;BME280;57735;56.264;43.898;2023-10-09T02:14:12;97678.38;;;3.05;85.78
70323;BME280;57735;56.264;43.898;2023-10-09T02:16:50;97682.13;;;3.11;85.94
70323;BME280;57735;56.264;43.898;2023-10-09T02:19:33;97683.09;;;3.18;85.87
70323;BME280;57735;56.264;43.898;2023-10-09T02:22:14;97693.91;;;3.23;86.00
70323;BME280;57735;56.264;43.898;2023-10-09T02:24:45;97691.09;;;3.25;85.92
70323;BME280;57735;56.264;43.898;2023-10-09T02:27:19;97693.91;;;3.23;85.69
70323;BME280;57735;56.264;43.898;2023-10-09T02:30:08;97697.88;;;3.19;85.49
70323;BME280;57735;56.264;43.898;2023-10-09T02:32:57;97703.94;;;3.20;85.26
70323;BME280;57735;56.264;43.898;2023-10-09T02:35:39;97703.13;;;3.19;85.29
70323;BME280;57735;56.264;43.898;2023-10-09T02:38:15;97703.13;;;3.19;85.14
70323;BME280;57735;56.264;43.898;2023-10-09T02:40:47;97707.56;;;3.19;85.36
70323;BME280;57735;56.264;43.898;2023-10-09T02:43:32;97711.69;;;3.21;85.46
70323;BME280;57735;56.264;43.898;2023-10-09T02:46:16;97722.56;;;3.18;85.09
70323;BME280;57735;56.264;43.898;2023-10-09T02:49:05;97720.13;;;3.17;85.00
70323;BME280;57735;56.264;43.898;2023-10-09T02:51:40;97722.09;;;3.14;85.04
70323;BME280;57735;56.264;43.898;2023-10-09T02:54:19;97728.34;;;3.13;84.79
70323;BME280;57735;56.264;43.898;2023-10-09T02:56:53;97731.31;;;3.10;84.78
70323;BME280;57735;56.264;43.898;2023-10-09T02:59:36;97741.19;;;3.08;84.76
70323;BME280;57735;56.264;43.898;2023-10-09T03:02:11;97742.84;;;3.09;85.33
70323;BME280;57735;56.264;43.898;2023-10-09T03:04:42;97735.75;;;3.10;85.10
70323;BME280;57735;56.264;43.898;2023-10-09T03:07:13;97738.91;;;3.05;84.66
70323;BME280;57735;56.264;43.898;2023-10-09T03:09:47;97745.97;;;3.05;84.82
70323;BME280;57735;56.264;43.898;2023-10-09T03:12:19;97749.59;;;3.04;84.86
70323;BME280;57735;56.264;43.898;2023-10-09T03:14:59;97756.50;;;3.05;85.09
70323;BME280;57735;56.264;43.898;2023-10-09T03:17:35;97754.50;;;3.07;84.88
70323;BME280;57735;56.264;43.898;2023-10-09T03:20:06;97754.50;;;3.07;84.33
70323;BME280;57735;56.264;43.898;2023-10-09T03:22:48;97756.66;;;3.03;83.47
70323;BME280;57735;56.264;43.898;2023-10-09T03:25:20;97757.84;;;3.01;83.15
70323;BME280;57735;56.264;43.898;2023-10-09T03:27:51;97754.19;;;3.02;83.36
70323;BME280;57735;56.264;43.898;2023-10-09T03:30:23;97766.38;;;3.03;83.92
70323;BME280;57735;56.264;43.898;2023-10-09T03:32:55;97759.47;;;3.02;83.61
70323;BME280;57735;56.264;43.898;2023-10-09T03:35:26;97760.28;;;3.02;83.61
70323;BME280;57735;56.264;43.898;2023-10-09T03:38:04;97771.28;;;3.06;84.16
70323;BME280;57735;56.264;43.898;2023-10-09T03:40:47;97763.22;;;3.07;83.91
70323;BME280;57735;56.264;43.898;2023-10-09T03:43:19;97776.41;;;3.07;83.87
70323;BME280;57735;56.264;43.898;2023-10-09T03:45:49;97770.31;;;3.07;83.55
70323;BME280;57735;56.264;43.898;2023-10-09T03:48:24;97780.84;;;3.07;83.76
70323;BME280;57735;56.264;43.898;2023-10-09T03:51:02;97773.28;;;3.04;83.61
70323;BME280;57735;56.264;43.898;2023-10-09T03:53:39;97775.75;;;3.05;83.91
70323;BME280;57735;56.264;43.898;2023-10-09T03:56:10;97776.56;;;3.06;84.12
70323;BME280;57735;56.264;43.898;2023-10-09T03:58:47;97781.31;;;3.10;84.33
70323;BME280;57735;56.264;43.898;2023-10-09T04:01:20;97794.31;;;3.12;84.18
70323;BME280;57735;56.264;43.898;2023-10-09T04:03:54;97790.22;;;3.09;83.91
70323;BME280;57735;56.264;43.898;2023-10-09T04:06:26;97792.00;;;3.09;83.93
70323;BME280;57735;56.264;43.898;2023-10-09T04:09:08;97811.09;;;3.11;83.89
70323;BME280;57735;56.264;43.898;2023-10-09T04:11:54;97797.75;;;3.12;83.91
70323;BME280;57735;56.264;43.898;2023-10-09T04:14:47;97804.50;;;3.15;84.02
70323;BME280;57735;56.264;43.898;2023-10-09T04:17:24;97802.16;;;3.20;84.08
70323;BME280;57735;56.264;43.898;2023-10-09T04:19:55;97802.47;;;3.25;83.98
70323;BME280;57735;56.264;43.898;2023-10-09T04:22:45;97806.94;;;3.25;83.48
70323;BME280;57735;56.264;43.898;2023-10-09T04:25:30;97809.22;;;3.28;83.47
70323;BME280;57735;56.264;43.898;2023-10-09T04:28:12;97822.38;;;3.28;82.94
70323;BME280;57735;56.264;43.898;2023-10-09T04:30:46;97816.78;;;3.31;83.09
70323;BME280;57735;56.264;43.898;2023-10-09T04:33:30;97816.09;;;3.37;83.05
70323;BME280;57735;56.264;43.898;2023-10-09T04:36:05;97824.63;;;3.39;82.23
70323;BME280;57735;56.264;43.898;2023-10-09T04:38:53;97823.34;;;3.35;80.06
70323;BME280;57735;56.264;43.898;2023-10-09T04:41:47;97837.97;;;3.37;80.89
70323;BME280;57735;56.264;43.898;2023-10-09T04:44:18;97831.53;;;3.40;80.29
70323;BME280;57735;56.264;43.898;2023-10-09T04:46:51;97842.06;;;3.40;80.09
70323;BME280;57735;56.264;43.898;2023-10-09T04:49:40;97853.59;;;3.39;79.44
70323;BME280;57735;56.264;43.898;2023-10-09T04:52:27;97874.00;;;3.37;79.20
70323;BME280;57735;56.264;43.898;2023-10-09T04:55:00;97873.72;;;3.32;78.40
70323;BME280;57735;56.264;43.898;2023-10-09T05:00:18;97872.06;;;3.31;78.20
70323;BME280;57735;56.264;43.898;2023-10-09T05:03:02;97880.31;;;3.28;78.34
70323;BME280;57735;56.264;43.898;2023-10-09T05:05:52;97878.00;;;3.25;78.60
70323;BME280;57735;56.264;43.898;2023-10-09T05:08:32;97888.38;;;3.26;78.91
70323;BME280;57735;56.264;43.898;2023-10-09T05:11:03;97885.25;;;3.23;79.16
70323;BME280;57735;56.264;43.898;2023-10-09T05:13:39;97889.03;;;3.20;78.76
70323;BME280;57735;56.264;43.898;2023-10-09T05:16:17;97889.53;;;3.24;79.50
70323;BME280;57735;56.264;43.898;2023-10-09T05:18:57;97892.81;;;3.26;79.46
70323;BME280;57735;56.264;43.898;2023-10-09T05:21:35;97901.53;;;3.26;79.32
70323;BME280;57735;56.264;43.898;2023-10-09T05:24:08;97913.03;;;3.25;79.68
70323;BME280;57735;56.264;43.898;2023-10-09T05:26:47;97898.91;;;3.26;80.02
70323;BME280;57735;56.264;43.898;2023-10-09T05:29:25;97917.50;;;3.25;79.54
70323;BME280;57735;56.264;43.898;2023-10-09T05:32:06;97922.09;;;3.31;79.91
70323;BME280;57735;56.264;43.898;2023-10-09T05:34:45;97926.16;;;3.41;80.01
70323;BME280;57735;56.264;43.898;2023-10-09T05:37:37;97922.38;;;3.44;79.63
70323;BME280;57735;56.264;43.898;2023-10-09T05:40:13;97924.03;;;3.45;78.63
70323;BME280;57735;56.264;43.898;2023-10-09T05:42:49;97928.78;;;3.49;78.99
70323;BME280;57735;56.264;43.898;2023-10-09T05:45:30;97933.06;;;3.50;79.37
70323;BME280;57735;56.264;43.898;2023-10-09T05:48:01;97935.00;;;3.57;79.82
70323;BME280;57735;56.264;43.898;2023-10-09T05:50:34;97935.50;;;3.60;79.70
70323;BME280;57735;56.264;43.898;2023-10-09T05:53:05;97935.34;;;3.62;79.85
70323;BME280;57735;56.264;43.898;2023-10-09T05:55:39;97947.63;;;3.69;79.77
70323;BME280;57735;56.264;43.898;2023-10-09T05:58:39;97935.94;;;3.80;78.56
70323;BME280;57735;56.264;43.898;2023-10-09T06:01:32;97940.81;;;3.91;78.01
70323;BME280;57735;56.264;43.898;2023-10-09T06:04:21;97953.97;;;3.99;78.21
70323;BME280;57735;56.264;43.898;2023-10-09T06:07:04;97953.56;;;4.10;77.39
70323;BME280;57735;56.264;43.898;2023-10-09T06:09:43;97947.25;;;4.19;77.32
70323;BME280;57735;56.264;43.898;2023-10-09T06:12:20;97958.38;;;4.38;76.80
70323;BME280;57735;56.264;43.898;2023-10-09T06:15:03;97956.16;;;4.49;76.44
70323;BME280;57735;56.264;43.898;2023-10-09T06:17:49;97970.59;;;4.62;75.83
70323;BME280;57735;56.264;43.898;2023-10-09T06:20:21;97965.25;;;4.70;74.99
70323;BME280;57735;56.264;43.898;2023-10-09T06:23:10;97973.47;;;4.75;75.09
70323;BME280;57735;56.264;43.898;2023-10-09T06:25:47;97972.81;;;4.73;74.95
70323;BME280;57735;56.264;43.898;2023-10-09T06:28:24;97982.56;;;4.72;75.10
70323;BME280;57735;56.264;43.898;2023-10-09T06:31:03;97976.00;;;4.68;75.00
70323;BME280;57735;56.264;43.898;2023-10-09T06:33:54;97975.28;;;4.51;73.85
70323;BME280;57735;56.264;43.898;2023-10-09T06:36:46;97989.16;;;4.45;74.18
70323;BME280;57735;56.264;43.898;2023-10-09T06:39:23;97987.34;;;4.46;74.39
70323;BME280;57735;56.264;43.898;2023-10-09T06:42:15;97989.00;;;4.47;75.13
70323;BME280;57735;56.264;43.898;2023-10-09T06:45:06;97996.38;;;4.51;74.70
70323;BME280;57735;56.264;43.898;2023-10-09T06:47:49;98000.13;;;4.57;74.31
70323;BME280;57735;56.264;43.898;2023-10-09T06:50:27;98006.38;;;4.64;74.36
70323;BME280;57735;56.264;43.898;2023-10-09T06:53:17;98008.69;;;4.59;73.30
70323;BME280;57735;56.264;43.898;2023-10-09T06:55:51;98012.41;;;4.73;73.94
70323;BME280;57735;56.264;43.898;2023-10-09T06:58:24;98015.81;;;4.81;72.68
70323;BME280;57735;56.264;43.898;2023-10-09T07:01:03;98011.47;;;4.88;72.71
70323;BME280;57735;56.264;43.898;2023-10-09T07:03:59;98013.75;;;4.91;72.44
70323;BME280;57735;56.264;43.898;2023-10-09T07:06:41;98022.31;;;4.94;73.28
70323;BME280;57735;56.264;43.898;2023-10-09T07:09:13;98019.75;;;4.85;73.33
70323;BME280;57735;56.264;43.898;2023-10-09T07:11:48;98032.34;;;4.75;73.91
70323;BME280;57735;56.264;43.898;2023-10-09T07:14:22;98044.88;;;4.73;74.41
70323;BME280;57735;56.264;43.898;2023-10-09T07:17:06;98037.84;;;4.66;74.80
70323;BME280;57735;56.264;43.898;2023-10-09T07:19:54;98050.22;;;4.65;75.45
70323;BME280;57735;56.264;43.898;2023-10-09T07:22:25;98051.22;;;4.64;75.76
70323;BME280;57735;56.264;43.898;2023-10-09T07:25:00;98061.94;;;4.63;76.01
70323;BME280;57735;56.264;43.898;2023-10-09T07:27:45;98071.69;;;4.62;76.26
70323;BME280;57735;56.264;43.898;2023-10-09T07:30:24;98059.31;;;4.63;76.22
70323;BME280;57735;56.264;43.898;2023-10-09T07:33:03;98057.97;;;4.67;77.33
70323;BME280;57735;56.264;43.898;2023-10-09T07:35:45;98073.25;;;4.71;77.79
70323;BME280;57735;56.264;43.898;2023-10-09T07:38:24;98065.84;;;4.75;77.34
70323;BME280;57735;56.264;43.898;2023-10-09T07:41:06;98067.78;;;4.81;77.33
70323;BME280;57735;56.264;43.898;2023-10-09T07:43:38;98078.00;;;4.84;77.34
70323;BME280;57735;56.264;43.898;2023-10-09T07:46:14;98079.81;;;4.83;76.76
70323;BME280;57735;56.264;43.898;2023-10-09T07:49:02;98081.66;;;4.75;76.88
70323;BME280;57735;56.264;43.898;2023-10-09T07:51:40;98100.13;;;4.75;77.53
70323;BME280;57735;56.264;43.898;2023-10-09T07:54:14;98090.06;;;4.78;78.20
70323;BME280;57735;56.264;43.898;2023-10-09T07:56:45;98094.94;;;4.89;78.38
70323;BME280;57735;56.264;43.898;2023-10-09T07:59:17;98088.28;;;5.02;78.34
70323;BME280;57735;56.264;43.898;2023-10-09T08:01:50;98097.63;;;5.12;78.80
70323;BME280;57735;56.264;43.898;2023-10-09T08:04:26;98107.41;;;5.26;78.94
70323;BME280;57735;56.264;43.898;2023-10-09T08:07:19;98116.81;;;5.29;77.54
70323;BME280;57735;56.264;43.898;2023-10-09T08:09:51;98113.66;;;5.34;77.30
70323;BME280;57735;56.264;43.898;2023-10-09T08:12:42;98114.94;;;5.38;77.09
70323;BME280;57735;56.264;43.898;2023-10-09T08:15:55;98123.28;;;5.49;76.50
70323;BME280;57735;56.264;43.898;2023-10-09T08:18:27;98119.09;;;5.55;75.87
70323;BME280;57735;56.264;43.898;2023-10-09T08:21:02;98129.97;;;5.60;76.25
70323;BME280;57735;56.264;43.898;2023-10-09T08:23:33;98131.78;;;5.59;76.80
70323;BME280;57735;56.264;43.898;2023-10-09T08:26:04;98134.78;;;5.56;76.21
70323;BME280;57735;56.264;43.898;2023-10-09T08:28:45;98137.25;;;5.58;76.43
70323;BME280;57735;56.264;43.898;2023-10-09T08:31:18;98137.72;;;5.61;77.06
70323;BME280;57735;56.264;43.898;2023-10-09T08:33:50;98148.97;;;5.55;76.98
70323;BME280;57735;56.264;43.898;2023-10-09T08:36:29;98156.63;;;5.50;77.38
70323;BME280;57735;56.264;43.898;2023-10-09T08:39:07;98160.31;;;5.41;77.80
70323;BME280;57735;56.264;43.898;2023-10-09T08:41:56;98153.09;;;5.35;77.94
70323;BME280;57735;56.264;43.898;2023-10-09T08:44:28;98157.75;;;5.33;78.22
70323;BME280;57735;56.264;43.898;2023-10-09T08:47:04;98160.56;;;5.32;78.12
70323;BME280;57735;56.264;43.898;2023-10-09T08:49:35;98179.03;;;5.32;78.39
70323;BME280;57735;56.264;43.898;2023-10-09T08:52:08;98170.28;;;5.31;78.40
70323;BME280;57735;56.264;43.898;2023-10-09T08:54:43;98178.22;;;5.31;78.76
70323;BME280;57735;56.264;43.898;2023-10-09T08:57:17;98176.34;;;5.40;78.62
70323;BME280;57735;56.264;43.898;2023-10-09T08:59:49;98184.75;;;5.43;78.52
70323;BME280;57735;56.264;43.898;2023-10-09T09:02:19;98188.84;;;5.46;78.48
70323;BME280;57735;56.264;43.898;2023-10-09T09:04:54;98187.78;;;5.55;78.74
70323;BME280;57735;56.264;43.898;2023-10-09T09:07:26;98193.03;;;5.63;78.86
70323;BME280;57735;56.264;43.898;2023-10-09T09:10:02;98193.16;;;5.70;78.40
70323;BME280;57735;56.264;43.898;2023-10-09T09:12:49;98194.25;;;5.75;78.51
70323;BME280;57735;56.264;43.898;2023-10-09T09:15:31;98199.84;;;5.80;78.09
70323;BME280;57735;56.264;43.898;2023-10-09T09:18:06;98203.63;;;5.86;77.74
70323;BME280;57735;56.264;43.898;2023-10-09T09:20:39;98203.03;;;5.99;78.26
70323;BME280;57735;56.264;43.898;2023-10-09T09:23:11;98208.16;;;6.00;78.07
70323;BME280;57735;56.264;43.898;2023-10-09T09:25:49;98211.97;;;5.98;78.26
70323;BME280;57735;56.264;43.898;2023-10-09T09:28:29;98211.50;;;5.94;78.10
70323;BME280;57735;56.264;43.898;2023-10-09T09:31:09;98229.00;;;5.95;78.19
70323;BME280;57735;56.264;43.898;2023-10-09T09:33:44;98228.03;;;5.88;78.23
70323;BME280;57735;56.264;43.898;2023-10-09T09:36:15;98227.75;;;5.83;78.77
70323;BME280;57735;56.264;43.898;2023-10-09T09:38:46;98225.28;;;5.81;79.03
70323;BME280;57735;56.264;43.898;2023-10-09T09:41:23;98233.88;;;5.83;79.53
70323;BME280;57735;56.264;43.898;2023-10-09T09:43:57;98241.31;;;5.80;79.49
70323;BME280;57735;56.264;43.898;2023-10-09T09:46:32;98249.13;;;5.73;79.91
70323;BME280;57735;56.264;43.898;2023-10-09T09:49:05;98242.19;;;5.72;80.42
70323;BME280;57735;56.264;43.898;2023-10-09T09:51:47;98248.44;;;5.79;81.13
70323;BME280;57735;56.264;43.898;2023-10-09T09:54:18;98256.28;;;5.87;81.03
70323;BME280;57735;56.264;43.898;2023-10-09T09:56:53;98252.00;;;5.94;81.03
70323;BME280;57735;56.264;43.898;2023-10-09T09:59:26;98246.34;;;5.98;81.17
70323;BME280;57735;56.264;43.898;2023-10-09T10:01:59;98249.31;;;6.03;81.39
70323;BME280;57735;56.264;43.898;2023-10-09T10:04:42;98249.09;;;6.04;81.60
70323;BME280;57735;56.264;43.898;2023-10-09T10:07:15;98260.31;;;6.06;81.84
70323;BME280;57735;56.264;43.898;2023-10-09T10:09:47;98260.81;;;6.10;81.84
70323;BME280;57735;56.264;43.898;2023-10-09T10:18:20;98269.91;;;6.07;82.28
70323;BME280;57735;56.264;43.898;2023-10-09T10:21:20;98266.75;;;6.12;82.05
70323;BME280;57735;56.264;43.898;2023-10-09T10:24:08;98268.38;;;6.13;81.81
70323;BME280;57735;56.264;43.898;2023-10-09T10:29:40;98272.34;;;6.17;81.76
70323;BME280;57735;56.264;43.898;2023-10-09T10:32:12;98275.06;;;6.23;82.28
70323;BME280;57735;56.264;43.898;2023-10-09T10:40:22;98284.69;;;6.39;81.87
70323;BME280;57735;56.264;43.898;2023-10-09T10:43:18;98288.75;;;6.50;82.11
70323;BME280;57735;56.264;43.898;2023-10-09T10:46:07;98298.06;;;6.60;81.09
70323;BME280;57735;56.264;43.898;2023-10-09T10:48:55;98299.06;;;6.59;80.66
70323;BME280;57735;56.264;43.898;2023-10-09T10:51:51;98298.59;;;6.56;80.47
70323;BME280;57735;56.264;43.898;2023-10-09T10:54:44;98309.56;;;6.53;80.48
70323;BME280;57735;56.264;43.898;2023-10-09T10:57:19;98306.63;;;6.48;81.02
70323;BME280;57735;56.264;43.898;2023-10-09T11:00:24;98307.16;;;6.43;81.66
70323;BME280;57735;56.264;43.898;2023-10-09T11:03:22;98312.94;;;6.47;81.71
70323;BME280;57735;56.264;43.898;2023-10-09T11:06:28;98309.34;;;6.40;81.61
70323;BME280;57735;56.264;43.898;2023-10-09T11:09:09;98316.75;;;6.44;80.86
70323;BME280;57735;56.264;43.898;2023-10-09T11:12:05;98321.34;;;6.50;80.77
70323;BME280;57735;56.264;43.898;2023-10-09T11:14:54;98326.13;;;6.70;80.39
70323;BME280;57735;56.264;43.898;2023-10-09T11:17:44;98322.13;;;6.88;80.52
70323;BME280;57735;56.264;43.898;2023-10-09T11:20:16;98330.28;;;7.02;80.08
70323;BME280;57735;56.264;43.898;2023-10-09T11:23:03;98332.38;;;7.06;79.93
70323;BME280;57735;56.264;43.898;2023-10-09T11:25:45;98344.19;;;7.18;79.67
70323;BME280;57735;56.264;43.898;2023-10-09T11:28:23;98338.25;;;7.31;79.68
70323;BME280;57735;56.264;43.898;2023-10-09T11:31:13;98350.50;;;7.32;80.01
70323;BME280;57735;56.264;43.898;2023-10-09T11:33:47;98341.09;;;7.29;79.79
70323;BME280;57735;56.264;43.898;2023-10-09T11:36:24;98349.84;;;7.30;79.91
70323;BME280;57735;56.264;43.898;2023-10-09T11:39:24;98349.94;;;7.22;79.20
70323;BME280;57735;56.264;43.898;2023-10-09T11:42:09;98352.16;;;7.18;79.01
70323;BME280;57735;56.264;43.898;2023-10-09T11:44:42;98360.16;;;7.10;78.90
70323;BME280;57735;56.264;43.898;2023-10-09T11:47:34;98354.50;;;6.98;78.40
70323;BME280;57735;56.264;43.898;2023-10-09T11:50:05;98362.78;;;6.95;79.11
70323;BME280;57735;56.264;43.898;2023-10-09T11:52:58;98352.09;;;6.89;78.65
70323;BME280;57735;56.264;43.898;2023-10-09T11:55:39;98361.22;;;6.86;79.54
70323;BME280;57735;56.264;43.898;2023-10-09T11:58:11;98354.88;;;6.73;78.71
70323;BME280;57735;56.264;43.898;2023-10-09T12:00:42;98363.19;;;6.70;79.04
70323;BME280;57735;56.264;43.898;2023-10-09T12:03:16;98377.63;;;6.67;79.71
70323;BME280;57735;56.264;43.898;2023-10-09T12:05:47;98363.34;;;6.53;79.36
70323;BME280;57735;56.264;43.898;2023-10-09T12:08:18;98379.59;;;6.42;78.97
70323;BME280;57735;56.264;43.898;2023-10-09T12:10:58;98393.25;;;6.31;80.19
70323;BME280;57735;56.264;43.898;2023-10-09T12:13:40;98398.97;;;6.20;80.98
70323;BME280;57735;56.264;43.898;2023-10-09T12:16:14;98397.44;;;5.94;81.53
70323;BME280;57735;56.264;43.898;2023-10-09T12:18:51;98404.75;;;5.76;82.34
70323;BME280;57735;56.264;43.898;2023-10-09T12:21:26;98418.69;;;5.62;82.78
70323;BME280;57735;56.264;43.898;2023-10-09T12:23:59;98414.44;;;5.53;83.43
70323;BME280;57735;56.264;43.898;2023-10-09T12:26:31;98419.41;;;5.40;84.37
70323;BME280;57735;56.264;43.898;2023-10-09T12:29:05;98424.38;;;5.26;85.47
70323;BME280;57735;56.264;43.898;2023-10-09T12:31:41;98425.41;;;5.17;86.59
70323;BME280;57735;56.264;43.898;2023-10-09T12:34:18;98461.69;;;5.07;87.44
70323;BME280;57735;56.264;43.898;2023-10-09T12:36:49;98445.72;;;4.84;85.81
70323;BME280;57735;56.264;43.898;2023-10-09T12:39:23;98457.56;;;4.56;85.49
70323;BME280;57735;56.264;43.898;2023-10-09T12:41:55;98465.59;;;4.38;85.54
70323;BME280;57735;56.264;43.898;2023-10-09T12:44:29;98464.91;;;4.28;86.24
70323;BME280;57735;56.264;43.898;2023-10-09T12:47:00;98477.09;;;4.21;86.97
70323;BME280;57735;56.264;43.898;2023-10-09T12:49:35;98472.31;;;4.16;87.04
70323;BME280;57735;56.264;43.898;2023-10-09T12:52:09;98479.56;;;4.14;87.09
70323;BME280;57735;56.264;43.898;2023-10-09T12:54:47;98486.63;;;4.14;87.24
70323;BME280;57735;56.264;43.898;2023-10-09T12:57:18;98486.97;;;4.19;87.25
70323;BME280;57735;56.264;43.898;2023-10-09T12:59:49;98494.88;;;4.19;87.30
70323;BME280;57735;56.264;43.898;2023-10-09T13:02:20;98495.22;;;4.24;87.41
70323;BME280;57735;56.264;43.898;2023-10-09T13:05:00;98508.25;;;4.26;87.04
70323;BME280;57735;56.264;43.898;2023-10-09T13:07:35;98505.81;;;4.32;86.99
70323;BME280;57735;56.264;43.898;2023-10-09T13:10:06;98514.22;;;4.36;86.62
70323;BME280;57735;56.264;43.898;2023-10-09T13:12:42;98510.59;;;4.37;86.16
70323;BME280;57735;56.264;43.898;2023-10-09T13:15:13;98512.91;;;4.40;86.46
70323;BME280;57735;56.264;43.898;2023-10-09T13:17:44;98518.84;;;4.42;86.20
70323;BME280;57735;56.264;43.898;2023-10-09T13:20:15;98522.00;;;4.45;86.40
70323;BME280;57735;56.264;43.898;2023-10-09T13:22:46;98527.97;;;4.47;86.31
70323;BME280;57735;56.264;43.898;2023-10-09T13:25:18;98535.56;;;4.50;86.70
70323;BME280;57735;56.264;43.898;2023-10-09T13:27:55;98526.97;;;4.48;86.46
70323;BME280;57735;56.264;43.898;2023-10-09T13:30:27;98534.56;;;4.51;86.91
70323;BME280;57735;56.264;43.898;2023-10-09T13:32:58;98542.50;;;4.51;86.82
70323;BME280;57735;56.264;43.898;2023-10-09T13:35:30;98541.81;;;4.49;86.69
70323;BME280;57735;56.264;43.898;2023-10-09T13:38:08;98540.16;;;4.48;86.82
70323;BME280;57735;56.264;43.898;2023-10-09T13:40:40;98548.53;;;4.44;86.45
70323;BME280;57735;56.264;43.898;2023-10-09T13:43:11;98558.25;;;4.35;86.16
70323;BME280;57735;56.264;43.898;2023-10-09T13:45:47;98558.56;;;4.32;86.47
70323;BME280;57735;56.264;43.898;2023-10-09T13:48:22;98572.69;;;4.23;86.46
70323;BME280;57735;56.264;43.898;2023-10-09T13:50:57;98560.63;;;4.12;87.35
70323;BME280;57735;56.264;43.898;2023-10-09T13:53:29;98570.66;;;4.09;87.70
70323;BME280;57735;56.264;43.898;2023-10-09T13:56:00;98578.03;;;4.05;87.96
70323;BME280;57735;56.264;43.898;2023-10-09T13:58:31;98583.13;;;3.99;87.83
70323;BME280;57735;56.264;43.898;2023-10-09T14:01:05;98583.28;;;3.97;87.97
70323;BME280;57735;56.264;43.898;2023-10-09T14:03:38;98584.25;;;3.96;88.01
70323;BME280;57735;56.264;43.898;2023-10-09T14:06:09;98587.72;;;3.97;87.98
70323;BME280;57735;56.264;43.898;2023-10-09T14:08:43;98598.41;;;3.95;88.01
70323;BME280;57735;56.264;43.898;2023-10-09T14:11:15;98609.13;;;3.94;88.25
70323;BME280;57735;56.264;43.898;2023-10-09T14:13:48;98608.28;;;3.93;87.60